sensor_id;sensor_type;location;lat;lon;timestamp;P1;durP1;ratioP1;P2;durP2;ratioP2
33864;SDS011;20159;51.072;13.526;2023-01-26T00:01:45;155.35;;;47.63;;
33864;SDS011;20159;51.072;13.526;2023-01-26T00:04:11;108.55;;;45.63;;
33864;SDS011;20159;51.072;13.526;2023-01-26T00:06:37;168.18;;;49.35;;
33864;SDS011;20159;51.072;13.526;2023-01-26T00:09:03;97.13;;;43.67;;
33864;SDS011;20159;51.072;13.526;2023-01-26T00:11:28;92.10;;;43.88;;
33864;SDS011;20159;51.072;13.526;2023-01-26T00:13:58;95.22;;;43.80;;
33864;SDS011;20159;51.072;13.526;2023-01-26T00:16:24;95.63;;;43.90;;
33864;SDS011;20159;51.072;13.526;2023-01-26T00:18:51;88.07;;;43.85;;
33864;SDS011;20159;51.072;13.526;2023-01-26T00:21:18;83.50;;;43.33;;
33864;SDS011;20159;51.072;13.526;2023-01-26T00:23:45;96.75;;;44.45;;
33864;SDS011;20159;51.072;13.526;2023-01-26T00:26:13;105.03;;;46.47;;
33864;SDS011;20159;51.072;13.526;2023-01-26T00:28:39;116.50;;;45.35;;
33864;SDS011;20159;51.072;13.526;2023-01-26T00:31:06;100.43;;;44.85;;
33864;SDS011;20159;51.072;13.526;2023-01-26T00:33:37;113.32;;;44.15;;
33864;SDS011;20159;51.072;13.526;2023-01-26T00:36:02;150.35;;;48.08;;
33864;SDS011;20159;51.072;13.526;2023-01-26T00:38:28;135.70;;;46.33;;
33864;SDS011;20159;51.072;13.526;2023-01-26T00:40:54;182.88;;;52.78;;
33864;SDS011;20159;51.072;13.526;2023-01-26T00:43:19;94.72;;;43.55;;
33864;SDS011;20159;51.072;13.526;2023-01-26T00:45:45;164.95;;;49.22;;
33864;SDS011;20159;51.072;13.526;2023-01-26T00:48:11;80.38;;;43.92;;
33864;SDS011;20159;51.072;13.526;2023-01-26T00:50:37;243.18;;;54.45;;
33864;SDS011;20159;51.072;13.526;2023-01-26T00:53:02;105.07;;;45.00;;
33864;SDS011;20159;51.072;13.526;2023-01-26T00:55:28;211.75;;;49.90;;
33864;SDS011;20159;51.072;13.526;2023-01-26T00:58:03;131.88;;;47.08;;
33864;SDS011;20159;51.072;13.526;2023-01-26T01:00:30;190.50;;;48.58;;
33864;SDS011;20159;51.072;13.526;2023-01-26T01:02:57;153.38;;;46.65;;
33864;SDS011;20159;51.072;13.526;2023-01-26T01:05:24;203.68;;;50.92;;
33864;SDS011;20159;51.072;13.526;2023-01-26T01:07:50;258.77;;;55.67;;
33864;SDS011;20159;51.072;13.526;2023-01-26T01:10:16;150.02;;;47.33;;
33864;SDS011;20159;51.072;13.526;2023-01-26T01:12:42;142.63;;;46.38;;
33864;SDS011;20159;51.072;13.526;2023-01-26T01:15:07;209.15;;;51.88;;
33864;SDS011;20159;51.072;13.526;2023-01-26T01:17:33;183.40;;;49.22;;
33864;SDS011;20159;51.072;13.526;2023-01-26T01:20:00;170.10;;;50.00;;
33864;SDS011;20159;51.072;13.526;2023-01-26T01:22:27;165.85;;;48.40;;
33864;SDS011;20159;51.072;13.526;2023-01-26T01:24:52;116.60;;;46.05;;
33864;SDS011;20159;51.072;13.526;2023-01-26T01:27:17;113.57;;;44.88;;
33864;SDS011;20159;51.072;13.526;2023-01-26T01:29:43;120.85;;;44.35;;
33864;SDS011;20159;51.072;13.526;2023-01-26T01:32:09;94.53;;;43.58;;
33864;SDS011;20159;51.072;13.526;2023-01-26T01:34:34;83.47;;;42.67;;
33864;SDS011;20159;51.072;13.526;2023-01-26T01:37:00;110.15;;;45.90;;
33864;SDS011;20159;51.072;13.526;2023-01-26T01:39:25;80.80;;;40.72;;
33864;SDS011;20159;51.072;13.526;2023-01-26T01:41:51;96.50;;;42.60;;
33864;SDS011;20159;51.072;13.526;2023-01-26T01:44:18;84.03;;;40.17;;
33864;SDS011;20159;51.072;13.526;2023-01-26T01:46:54;91.72;;;39.33;;
33864;SDS011;20159;51.072;13.526;2023-01-26T01:49:25;109.05;;;41.28;;
33864;SDS011;20159;51.072;13.526;2023-01-26T01:52:01;123.90;;;42.03;;
33864;SDS011;20159;51.072;13.526;2023-01-26T01:54:41;127.00;;;42.95;;
33864;SDS011;20159;51.072;13.526;2023-01-26T01:57:13;69.10;;;37.42;;
33864;SDS011;20159;51.072;13.526;2023-01-26T01:59:50;113.65;;;41.58;;
33864;SDS011;20159;51.072;13.526;2023-01-26T02:02:26;80.82;;;40.03;;
33864;SDS011;20159;51.072;13.526;2023-01-26T02:04:53;70.65;;;37.90;;
33864;SDS011;20159;51.072;13.526;2023-01-26T02:07:24;77.70;;;39.20;;
33864;SDS011;20159;51.072;13.526;2023-01-26T02:09:50;128.48;;;43.30;;
33864;SDS011;20159;51.072;13.526;2023-01-26T02:12:35;114.20;;;40.60;;
33864;SDS011;20159;51.072;13.526;2023-01-26T02:15:01;84.95;;;39.22;;
33864;SDS011;20159;51.072;13.526;2023-01-26T02:17:27;74.55;;;38.05;;
33864;SDS011;20159;51.072;13.526;2023-01-26T02:22:50;170.68;;;42.50;;
33864;SDS011;20159;51.072;13.526;2023-01-26T02:25:39;82.82;;;35.67;;
33864;SDS011;20159;51.072;13.526;2023-01-26T02:28:14;117.50;;;38.63;;
33864;SDS011;20159;51.072;13.526;2023-01-26T02:30:41;76.40;;;37.15;;
33864;SDS011;20159;51.072;13.526;2023-01-26T02:33:06;111.75;;;40.53;;
33864;SDS011;20159;51.072;13.526;2023-01-26T02:35:32;97.72;;;36.30;;
33864;SDS011;20159;51.072;13.526;2023-01-26T02:37:58;80.45;;;36.22;;
33864;SDS011;20159;51.072;13.526;2023-01-26T02:40:29;76.20;;;35.97;;
33864;SDS011;20159;51.072;13.526;2023-01-26T02:43:02;99.70;;;37.90;;
33864;SDS011;20159;51.072;13.526;2023-01-26T02:45:28;120.90;;;38.53;;
33864;SDS011;20159;51.072;13.526;2023-01-26T02:47:55;128.23;;;37.63;;
33864;SDS011;20159;51.072;13.526;2023-01-26T02:50:21;138.60;;;38.25;;
33864;SDS011;20159;51.072;13.526;2023-01-26T02:52:47;138.38;;;38.72;;
33864;SDS011;20159;51.072;13.526;2023-01-26T02:55:13;121.35;;;37.75;;
33864;SDS011;20159;51.072;13.526;2023-01-26T02:57:53;66.53;;;34.85;;
33864;SDS011;20159;51.072;13.526;2023-01-26T03:00:24;127.55;;;39.65;;
33864;SDS011;20159;51.072;13.526;2023-01-26T03:02:52;68.45;;;36.22;;
33864;SDS011;20159;51.072;13.526;2023-01-26T03:05:20;103.70;;;37.38;;
33864;SDS011;20159;51.072;13.526;2023-01-26T03:07:45;140.77;;;38.58;;
33864;SDS011;20159;51.072;13.526;2023-01-26T03:10:11;107.80;;;38.03;;
33864;SDS011;20159;51.072;13.526;2023-01-26T03:12:37;94.97;;;36.08;;
33864;SDS011;20159;51.072;13.526;2023-01-26T03:15:05;102.30;;;38.92;;
33864;SDS011;20159;51.072;13.526;2023-01-26T03:17:49;90.88;;;37.17;;
33864;SDS011;20159;51.072;13.526;2023-01-26T03:20:15;187.10;;;43.35;;
33864;SDS011;20159;51.072;13.526;2023-01-26T03:22:59;150.38;;;37.45;;
33864;SDS011;20159;51.072;13.526;2023-01-26T03:25:43;163.70;;;39.42;;
33864;SDS011;20159;51.072;13.526;2023-01-26T03:28:28;113.28;;;37.47;;
33864;SDS011;20159;51.072;13.526;2023-01-26T03:30:54;118.38;;;36.80;;
33864;SDS011;20159;51.072;13.526;2023-01-26T03:33:21;66.45;;;33.83;;
33864;SDS011;20159;51.072;13.526;2023-01-26T03:35:47;142.43;;;36.53;;
33864;SDS011;20159;51.072;13.526;2023-01-26T03:38:12;186.07;;;40.65;;
33864;SDS011;20159;51.072;13.526;2023-01-26T03:40:38;165.18;;;38.60;;
33864;SDS011;20159;51.072;13.526;2023-01-26T03:43:22;127.60;;;35.70;;
33864;SDS011;20159;51.072;13.526;2023-01-26T03:46:07;78.57;;;32.00;;
33864;SDS011;20159;51.072;13.526;2023-01-26T03:48:51;82.15;;;32.22;;
33864;SDS011;20159;51.072;13.526;2023-01-26T03:51:36;76.80;;;31.33;;
33864;SDS011;20159;51.072;13.526;2023-01-26T03:54:21;121.55;;;34.88;;
33864;SDS011;20159;51.072;13.526;2023-01-26T03:57:05;94.78;;;33.50;;
33864;SDS011;20159;51.072;13.526;2023-01-26T03:59:30;73.20;;;33.90;;
33864;SDS011;20159;51.072;13.526;2023-01-26T04:02:02;66.65;;;35.40;;
33864;SDS011;20159;51.072;13.526;2023-01-26T04:04:51;65.35;;;36.22;;
33864;SDS011;20159;51.072;13.526;2023-01-26T04:07:36;71.80;;;36.28;;
33864;SDS011;20159;51.072;13.526;2023-01-26T04:10:20;67.47;;;35.08;;
33864;SDS011;20159;51.072;13.526;2023-01-26T04:12:46;66.72;;;36.20;;
33864;SDS011;20159;51.072;13.526;2023-01-26T04:15:30;67.50;;;36.03;;
33864;SDS011;20159;51.072;13.526;2023-01-26T04:18:15;61.97;;;35.55;;
33864;SDS011;20159;51.072;13.526;2023-01-26T04:21:00;67.10;;;36.70;;
33864;SDS011;20159;51.072;13.526;2023-01-26T04:23:48;66.40;;;37.00;;
33864;SDS011;20159;51.072;13.526;2023-01-26T04:26:14;66.63;;;35.70;;
33864;SDS011;20159;51.072;13.526;2023-01-26T04:28:39;66.40;;;36.50;;
33864;SDS011;20159;51.072;13.526;2023-01-26T04:31:05;62.72;;;35.42;;
33864;SDS011;20159;51.072;13.526;2023-01-26T04:33:31;71.75;;;36.95;;
33864;SDS011;20159;51.072;13.526;2023-01-26T04:36:01;69.60;;;37.40;;
33864;SDS011;20159;51.072;13.526;2023-01-26T04:38:30;64.32;;;35.33;;
33864;SDS011;20159;51.072;13.526;2023-01-26T04:40:55;68.82;;;34.58;;
33864;SDS011;20159;51.072;13.526;2023-01-26T04:43:21;66.55;;;35.53;;
33864;SDS011;20159;51.072;13.526;2023-01-26T04:45:56;61.45;;;35.38;;
33864;SDS011;20159;51.072;13.526;2023-01-26T04:48:23;60.85;;;35.85;;
33864;SDS011;20159;51.072;13.526;2023-01-26T04:50:53;65.43;;;34.70;;
33864;SDS011;20159;51.072;13.526;2023-01-26T04:53:31;62.45;;;34.92;;
33864;SDS011;20159;51.072;13.526;2023-01-26T04:55:57;60.00;;;33.85;;
33864;SDS011;20159;51.072;13.526;2023-01-26T04:58:23;56.65;;;33.97;;
33864;SDS011;20159;51.072;13.526;2023-01-26T05:00:52;60.85;;;33.38;;
33864;SDS011;20159;51.072;13.526;2023-01-26T05:03:19;57.75;;;34.00;;
33864;SDS011;20159;51.072;13.526;2023-01-26T05:05:47;61.15;;;32.85;;
33864;SDS011;20159;51.072;13.526;2023-01-26T05:08:14;67.13;;;35.50;;
33864;SDS011;20159;51.072;13.526;2023-01-26T05:10:40;57.58;;;33.70;;
33864;SDS011;20159;51.072;13.526;2023-01-26T05:13:06;64.85;;;35.53;;
33864;SDS011;20159;51.072;13.526;2023-01-26T05:15:32;64.90;;;35.22;;
33864;SDS011;20159;51.072;13.526;2023-01-26T05:17:58;66.55;;;34.75;;
33864;SDS011;20159;51.072;13.526;2023-01-26T05:20:24;65.57;;;35.65;;
33864;SDS011;20159;51.072;13.526;2023-01-26T05:22:50;69.72;;;36.92;;
33864;SDS011;20159;51.072;13.526;2023-01-26T05:25:15;74.60;;;38.63;;
33864;SDS011;20159;51.072;13.526;2023-01-26T05:27:41;72.85;;;37.03;;
33864;SDS011;20159;51.072;13.526;2023-01-26T05:30:06;70.13;;;34.88;;
33864;SDS011;20159;51.072;13.526;2023-01-26T05:32:32;65.93;;;37.28;;
33864;SDS011;20159;51.072;13.526;2023-01-26T05:34:58;70.15;;;36.90;;
33864;SDS011;20159;51.072;13.526;2023-01-26T05:37:24;72.20;;;37.30;;
33864;SDS011;20159;51.072;13.526;2023-01-26T05:39:51;65.20;;;37.65;;
33864;SDS011;20159;51.072;13.526;2023-01-26T05:42:16;60.80;;;36.50;;
33864;SDS011;20159;51.072;13.526;2023-01-26T05:44:42;61.20;;;36.58;;
33864;SDS011;20159;51.072;13.526;2023-01-26T05:47:07;57.05;;;34.78;;
33864;SDS011;20159;51.072;13.526;2023-01-26T05:49:33;56.97;;;33.63;;
33864;SDS011;20159;51.072;13.526;2023-01-26T05:51:58;57.60;;;34.15;;
33864;SDS011;20159;51.072;13.526;2023-01-26T05:54:25;60.00;;;34.35;;
33864;SDS011;20159;51.072;13.526;2023-01-26T05:56:50;55.92;;;34.47;;
33864;SDS011;20159;51.072;13.526;2023-01-26T05:59:17;57.15;;;35.78;;
33864;SDS011;20159;51.072;13.526;2023-01-26T06:01:43;52.90;;;32.40;;
33864;SDS011;20159;51.072;13.526;2023-01-26T06:04:08;57.50;;;35.92;;
33864;SDS011;20159;51.072;13.526;2023-01-26T06:06:34;49.00;;;33.40;;
33864;SDS011;20159;51.072;13.526;2023-01-26T06:08:59;51.80;;;33.97;;
33864;SDS011;20159;51.072;13.526;2023-01-26T06:11:25;50.70;;;34.58;;
33864;SDS011;20159;51.072;13.526;2023-01-26T06:13:50;50.05;;;33.22;;
33864;SDS011;20159;51.072;13.526;2023-01-26T06:16:16;47.47;;;32.80;;
33864;SDS011;20159;51.072;13.526;2023-01-26T06:18:41;45.65;;;32.65;;
33864;SDS011;20159;51.072;13.526;2023-01-26T06:21:07;48.40;;;31.38;;
33864;SDS011;20159;51.072;13.526;2023-01-26T06:23:32;49.28;;;33.05;;
33864;SDS011;20159;51.072;13.526;2023-01-26T06:25:58;50.55;;;34.67;;
33864;SDS011;20159;51.072;13.526;2023-01-26T06:28:25;47.35;;;33.08;;
33864;SDS011;20159;51.072;13.526;2023-01-26T06:30:51;53.90;;;34.83;;
33864;SDS011;20159;51.072;13.526;2023-01-26T06:33:22;46.28;;;33.53;;
33864;SDS011;20159;51.072;13.526;2023-01-26T06:35:48;47.78;;;33.53;;
33864;SDS011;20159;51.072;13.526;2023-01-26T06:38:13;48.78;;;34.30;;
33864;SDS011;20159;51.072;13.526;2023-01-26T06:40:39;50.47;;;33.58;;
33864;SDS011;20159;51.072;13.526;2023-01-26T06:43:04;52.92;;;33.15;;
33864;SDS011;20159;51.072;13.526;2023-01-26T06:45:30;46.40;;;32.85;;
33864;SDS011;20159;51.072;13.526;2023-01-26T06:47:56;50.90;;;34.10;;
33864;SDS011;20159;51.072;13.526;2023-01-26T06:50:24;49.05;;;32.90;;
33864;SDS011;20159;51.072;13.526;2023-01-26T06:52:55;54.97;;;33.80;;
33864;SDS011;20159;51.072;13.526;2023-01-26T06:55:33;52.58;;;35.00;;
33864;SDS011;20159;51.072;13.526;2023-01-26T06:58:01;50.50;;;34.83;;
33864;SDS011;20159;51.072;13.526;2023-01-26T07:00:27;54.40;;;37.58;;
33864;SDS011;20159;51.072;13.526;2023-01-26T07:02:52;55.08;;;36.05;;
33864;SDS011;20159;51.072;13.526;2023-01-26T07:05:18;53.63;;;36.33;;
33864;SDS011;20159;51.072;13.526;2023-01-26T07:07:43;55.58;;;36.78;;
33864;SDS011;20159;51.072;13.526;2023-01-26T07:10:09;51.53;;;34.97;;
33864;SDS011;20159;51.072;13.526;2023-01-26T07:12:42;56.85;;;35.53;;
33864;SDS011;20159;51.072;13.526;2023-01-26T07:15:10;48.95;;;32.47;;
33864;SDS011;20159;51.072;13.526;2023-01-26T07:17:37;54.58;;;35.55;;
33864;SDS011;20159;51.072;13.526;2023-01-26T07:20:03;54.90;;;36.78;;
33864;SDS011;20159;51.072;13.526;2023-01-26T07:22:29;57.28;;;37.10;;
33864;SDS011;20159;51.072;13.526;2023-01-26T07:24:54;59.50;;;38.67;;
33864;SDS011;20159;51.072;13.526;2023-01-26T07:27:20;56.92;;;39.17;;
33864;SDS011;20159;51.072;13.526;2023-01-26T07:29:45;63.90;;;40.53;;
33864;SDS011;20159;51.072;13.526;2023-01-26T07:32:12;58.38;;;36.92;;
33864;SDS011;20159;51.072;13.526;2023-01-26T07:34:38;53.30;;;37.58;;
33864;SDS011;20159;51.072;13.526;2023-01-26T07:37:03;52.05;;;36.72;;
33864;SDS011;20159;51.072;13.526;2023-01-26T07:39:29;50.38;;;35.42;;
33864;SDS011;20159;51.072;13.526;2023-01-26T07:41:55;61.05;;;38.45;;
33864;SDS011;20159;51.072;13.526;2023-01-26T07:44:21;58.08;;;37.67;;
33864;SDS011;20159;51.072;13.526;2023-01-26T07:46:46;66.10;;;38.95;;
33864;SDS011;20159;51.072;13.526;2023-01-26T07:49:12;62.63;;;39.55;;
33864;SDS011;20159;51.072;13.526;2023-01-26T07:51:37;58.65;;;36.42;;
33864;SDS011;20159;51.072;13.526;2023-01-26T07:54:06;58.75;;;38.17;;
33864;SDS011;20159;51.072;13.526;2023-01-26T07:56:35;60.85;;;36.85;;
33864;SDS011;20159;51.072;13.526;2023-01-26T07:59:01;63.28;;;39.08;;
33864;SDS011;20159;51.072;13.526;2023-01-26T08:01:26;67.18;;;40.13;;
33864;SDS011;20159;51.072;13.526;2023-01-26T08:03:52;59.97;;;37.72;;
33864;SDS011;20159;51.072;13.526;2023-01-26T08:08:48;63.53;;;38.83;;
33864;SDS011;20159;51.072;13.526;2023-01-26T08:11:24;62.78;;;37.92;;
33864;SDS011;20159;51.072;13.526;2023-01-26T08:13:50;63.80;;;37.95;;
33864;SDS011;20159;51.072;13.526;2023-01-26T08:16:16;63.33;;;39.58;;
33864;SDS011;20159;51.072;13.526;2023-01-26T08:18:43;63.65;;;38.08;;
33864;SDS011;20159;51.072;13.526;2023-01-26T08:21:12;62.45;;;38.65;;
33864;SDS011;20159;51.072;13.526;2023-01-26T08:23:39;62.58;;;36.35;;
33864;SDS011;20159;51.072;13.526;2023-01-26T08:26:07;55.67;;;34.25;;
33864;SDS011;20159;51.072;13.526;2023-01-26T08:28:35;56.10;;;35.15;;
33864;SDS011;20159;51.072;13.526;2023-01-26T08:31:05;56.45;;;35.15;;
33864;SDS011;20159;51.072;13.526;2023-01-26T08:33:32;55.22;;;34.97;;
33864;SDS011;20159;51.072;13.526;2023-01-26T08:36:02;58.50;;;35.58;;
33864;SDS011;20159;51.072;13.526;2023-01-26T08:38:32;59.33;;;34.20;;
33864;SDS011;20159;51.072;13.526;2023-01-26T08:40:58;55.13;;;35.47;;
33864;SDS011;20159;51.072;13.526;2023-01-26T08:43:24;57.17;;;35.33;;
33864;SDS011;20159;51.072;13.526;2023-01-26T08:45:50;57.42;;;34.83;;
33864;SDS011;20159;51.072;13.526;2023-01-26T08:48:26;55.58;;;33.20;;
33864;SDS011;20159;51.072;13.526;2023-01-26T08:50:54;54.00;;;34.35;;
33864;SDS011;20159;51.072;13.526;2023-01-26T08:53:23;58.53;;;34.95;;
33864;SDS011;20159;51.072;13.526;2023-01-26T08:56:00;51.70;;;33.72;;
33864;SDS011;20159;51.072;13.526;2023-01-26T08:58:26;59.55;;;35.92;;
33864;SDS011;20159;51.072;13.526;2023-01-26T09:00:55;52.22;;;34.80;;
33864;SDS011;20159;51.072;13.526;2023-01-26T09:03:26;56.50;;;35.10;;
33864;SDS011;20159;51.072;13.526;2023-01-26T09:05:57;52.75;;;33.65;;
33864;SDS011;20159;51.072;13.526;2023-01-26T09:08:26;54.67;;;34.88;;
33864;SDS011;20159;51.072;13.526;2023-01-26T09:10:55;51.95;;;33.80;;
33864;SDS011;20159;51.072;13.526;2023-01-26T09:13:21;53.80;;;34.58;;
33864;SDS011;20159;51.072;13.526;2023-01-26T09:15:47;60.15;;;35.17;;
33864;SDS011;20159;51.072;13.526;2023-01-26T09:18:15;58.15;;;36.58;;
33864;SDS011;20159;51.072;13.526;2023-01-26T09:20:44;53.78;;;35.33;;
33864;SDS011;20159;51.072;13.526;2023-01-26T09:23:10;54.47;;;34.63;;
33864;SDS011;20159;51.072;13.526;2023-01-26T09:25:43;56.65;;;35.38;;
33864;SDS011;20159;51.072;13.526;2023-01-26T09:28:18;58.83;;;36.72;;
33864;SDS011;20159;51.072;13.526;2023-01-26T09:30:50;55.95;;;35.78;;
33864;SDS011;20159;51.072;13.526;2023-01-26T09:33:16;58.45;;;36.30;;
33864;SDS011;20159;51.072;13.526;2023-01-26T09:35:53;58.33;;;36.70;;
33864;SDS011;20159;51.072;13.526;2023-01-26T09:38:18;54.03;;;35.72;;
33864;SDS011;20159;51.072;13.526;2023-01-26T09:43:41;60.08;;;40.78;;
33864;SDS011;20159;51.072;13.526;2023-01-26T09:46:28;56.97;;;37.22;;
33864;SDS011;20159;51.072;13.526;2023-01-26T09:49:07;66.00;;;42.33;;
33864;SDS011;20159;51.072;13.526;2023-01-26T09:51:41;57.88;;;37.60;;
33864;SDS011;20159;51.072;13.526;2023-01-26T09:54:27;56.10;;;36.45;;
33864;SDS011;20159;51.072;13.526;2023-01-26T09:57:13;51.80;;;35.50;;
33864;SDS011;20159;51.072;13.526;2023-01-26T10:02:27;48.78;;;32.10;;
33864;SDS011;20159;51.072;13.526;2023-01-26T10:05:00;56.42;;;33.92;;
33864;SDS011;20159;51.072;13.526;2023-01-26T10:07:35;49.75;;;32.95;;
33864;SDS011;20159;51.072;13.526;2023-01-26T10:10:12;49.95;;;31.98;;
33864;SDS011;20159;51.072;13.526;2023-01-26T10:12:46;52.33;;;35.67;;
33864;SDS011;20159;51.072;13.526;2023-01-26T10:15:30;49.08;;;33.92;;
33864;SDS011;20159;51.072;13.526;2023-01-26T10:18:08;53.42;;;35.17;;
33864;SDS011;20159;51.072;13.526;2023-01-26T10:20:49;52.63;;;34.20;;
33864;SDS011;20159;51.072;13.526;2023-01-26T10:23:22;46.20;;;31.58;;
33864;SDS011;20159;51.072;13.526;2023-01-26T10:25:57;47.83;;;33.30;;
33864;SDS011;20159;51.072;13.526;2023-01-26T10:28:35;53.45;;;33.75;;
33864;SDS011;20159;51.072;13.526;2023-01-26T10:31:04;47.42;;;32.63;;
33864;SDS011;20159;51.072;13.526;2023-01-26T10:33:36;46.72;;;31.15;;
33864;SDS011;20159;51.072;13.526;2023-01-26T10:36:04;45.92;;;29.48;;
33864;SDS011;20159;51.072;13.526;2023-01-26T10:40:57;52.33;;;32.08;;
33864;SDS011;20159;51.072;13.526;2023-01-26T10:43:24;46.95;;;30.70;;
33864;SDS011;20159;51.072;13.526;2023-01-26T10:45:50;49.90;;;31.27;;
33864;SDS011;20159;51.072;13.526;2023-01-26T10:48:17;43.92;;;28.90;;
33864;SDS011;20159;51.072;13.526;2023-01-26T10:50:51;48.88;;;29.75;;
33864;SDS011;20159;51.072;13.526;2023-01-26T10:53:21;47.97;;;30.13;;
33864;SDS011;20159;51.072;13.526;2023-01-26T10:55:58;48.47;;;30.17;;
33864;SDS011;20159;51.072;13.526;2023-01-26T11:01:09;47.00;;;29.20;;
33864;SDS011;20159;51.072;13.526;2023-01-26T11:03:36;48.17;;;30.73;;
33864;SDS011;20159;51.072;13.526;2023-01-26T11:06:15;52.95;;;30.40;;
33864;SDS011;20159;51.072;13.526;2023-01-26T11:08:42;50.70;;;30.05;;
33864;SDS011;20159;51.072;13.526;2023-01-26T11:11:24;48.47;;;30.45;;
33864;SDS011;20159;51.072;13.526;2023-01-26T11:14:10;44.88;;;28.65;;
33864;SDS011;20159;51.072;13.526;2023-01-26T11:16:44;44.75;;;28.05;;
33864;SDS011;20159;51.072;13.526;2023-01-26T11:19:58;45.67;;;29.17;;
33864;SDS011;20159;51.072;13.526;2023-01-26T11:22:18;45.08;;;29.25;;
33864;SDS011;20159;51.072;13.526;2023-01-26T11:27:42;46.88;;;29.58;;
33864;SDS011;20159;51.072;13.526;2023-01-26T11:30:35;44.90;;;28.80;;
33864;SDS011;20159;51.072;13.526;2023-01-26T11:33:28;41.10;;;26.98;;
33864;SDS011;20159;51.072;13.526;2023-01-26T11:41:57;43.35;;;27.20;;
33864;SDS011;20159;51.072;13.526;2023-01-26T11:44:44;42.92;;;26.48;;
33864;SDS011;20159;51.072;13.526;2023-01-26T11:50:08;39.78;;;26.30;;
33864;SDS011;20159;51.072;13.526;2023-01-26T11:55:27;37.28;;;24.52;;
33864;SDS011;20159;51.072;13.526;2023-01-26T11:59:00;38.90;;;24.08;;
33864;SDS011;20159;51.072;13.526;2023-01-26T12:01:38;40.28;;;24.63;;
33864;SDS011;20159;51.072;13.526;2023-01-26T12:04:13;36.40;;;24.23;;
33864;SDS011;20159;51.072;13.526;2023-01-26T12:06:44;39.15;;;24.55;;
33864;SDS011;20159;51.072;13.526;2023-01-26T12:09:12;39.53;;;24.85;;
33864;SDS011;20159;51.072;13.526;2023-01-26T12:11:50;35.42;;;21.75;;
33864;SDS011;20159;51.072;13.526;2023-01-26T12:14:37;35.17;;;23.05;;
33864;SDS011;20159;51.072;13.526;2023-01-26T12:17:27;31.88;;;20.92;;
33864;SDS011;20159;51.072;13.526;2023-01-26T12:20:23;32.45;;;21.95;;
33864;SDS011;20159;51.072;13.526;2023-01-26T12:23:24;33.80;;;21.98;;
33864;SDS011;20159;51.072;13.526;2023-01-26T12:26:09;35.00;;;23.05;;
33864;SDS011;20159;51.072;13.526;2023-01-26T12:28:44;35.75;;;23.25;;
33864;SDS011;20159;51.072;13.526;2023-01-26T12:31:28;32.65;;;20.83;;
33864;SDS011;20159;51.072;13.526;2023-01-26T12:33:59;34.90;;;22.13;;
33864;SDS011;20159;51.072;13.526;2023-01-26T12:39:08;33.53;;;22.98;;
33864;SDS011;20159;51.072;13.526;2023-01-26T12:44:17;33.42;;;22.40;;
33864;SDS011;20159;51.072;13.526;2023-01-26T12:46:52;32.75;;;22.67;;
33864;SDS011;20159;51.072;13.526;2023-01-26T12:49:39;28.70;;;21.00;;
33864;SDS011;20159;51.072;13.526;2023-01-26T12:52:34;32.45;;;21.58;;
33864;SDS011;20159;51.072;13.526;2023-01-26T12:55:15;32.85;;;21.75;;
33864;SDS011;20159;51.072;13.526;2023-01-26T12:57:48;29.17;;;21.67;;
33864;SDS011;20159;51.072;13.526;2023-01-26T13:02:58;29.38;;;21.50;;
33864;SDS011;20159;51.072;13.526;2023-01-26T13:10:54;32.95;;;22.48;;
33864;SDS011;20159;51.072;13.526;2023-01-26T13:15:45;26.13;;;19.45;;
33864;SDS011;20159;51.072;13.526;2023-01-26T13:18:12;27.90;;;19.98;;
33864;SDS011;20159;51.072;13.526;2023-01-26T13:26:52;24.92;;;18.17;;
33864;SDS011;20159;51.072;13.526;2023-01-26T13:31:50;25.38;;;18.83;;
33864;SDS011;20159;51.072;13.526;2023-01-26T13:34:18;25.60;;;19.38;;
33864;SDS011;20159;51.072;13.526;2023-01-26T13:36:48;24.30;;;18.05;;
33864;SDS011;20159;51.072;13.526;2023-01-26T13:41:55;25.80;;;18.88;;
33864;SDS011;20159;51.072;13.526;2023-01-26T13:44:21;25.45;;;19.17;;
33864;SDS011;20159;51.072;13.526;2023-01-26T13:46:55;26.00;;;18.95;;
33864;SDS011;20159;51.072;13.526;2023-01-26T13:49:27;24.27;;;18.17;;
33864;SDS011;20159;51.072;13.526;2023-01-26T13:52:20;24.17;;;17.65;;
33864;SDS011;20159;51.072;13.526;2023-01-26T13:54:48;22.02;;;17.02;;
33864;SDS011;20159;51.072;13.526;2023-01-26T13:57:19;25.02;;;18.77;;
33864;SDS011;20159;51.072;13.526;2023-01-26T13:59:48;22.13;;;18.02;;
33864;SDS011;20159;51.072;13.526;2023-01-26T14:02:22;25.83;;;18.60;;
33864;SDS011;20159;51.072;13.526;2023-01-26T14:04:55;23.70;;;17.45;;
33864;SDS011;20159;51.072;13.526;2023-01-26T14:07:25;21.90;;;17.55;;
33864;SDS011;20159;51.072;13.526;2023-01-26T14:10:14;21.92;;;16.70;;
33864;SDS011;20159;51.072;13.526;2023-01-26T14:12:52;22.95;;;16.08;;
33864;SDS011;20159;51.072;13.526;2023-01-26T14:15:23;21.50;;;16.45;;
33864;SDS011;20159;51.072;13.526;2023-01-26T14:17:58;22.40;;;16.85;;
33864;SDS011;20159;51.072;13.526;2023-01-26T14:20:31;21.37;;;16.30;;
33864;SDS011;20159;51.072;13.526;2023-01-26T14:23:02;22.80;;;17.38;;
33864;SDS011;20159;51.072;13.526;2023-01-26T14:25:44;24.75;;;17.95;;
33864;SDS011;20159;51.072;13.526;2023-01-26T14:28:16;22.42;;;17.48;;
33864;SDS011;20159;51.072;13.526;2023-01-26T14:30:49;22.20;;;17.83;;
33864;SDS011;20159;51.072;13.526;2023-01-26T14:33:16;26.73;;;21.75;;
33864;SDS011;20159;51.072;13.526;2023-01-26T14:35:58;29.65;;;22.90;;
33864;SDS011;20159;51.072;13.526;2023-01-26T14:38:27;40.30;;;29.20;;
33864;SDS011;20159;51.072;13.526;2023-01-26T14:40:57;39.58;;;28.95;;
33864;SDS011;20159;51.072;13.526;2023-01-26T14:43:24;30.92;;;24.80;;
33864;SDS011;20159;51.072;13.526;2023-01-26T14:46:08;25.63;;;21.10;;
33864;SDS011;20159;51.072;13.526;2023-01-26T14:48:41;23.60;;;19.17;;
33864;SDS011;20159;51.072;13.526;2023-01-26T14:51:21;27.13;;;19.70;;
33864;SDS011;20159;51.072;13.526;2023-01-26T14:53:51;24.27;;;18.35;;
33864;SDS011;20159;51.072;13.526;2023-01-26T14:56:30;23.67;;;17.60;;
33864;SDS011;20159;51.072;13.526;2023-01-26T14:59:02;26.52;;;19.60;;
33864;SDS011;20159;51.072;13.526;2023-01-26T15:01:30;24.00;;;19.15;;
33864;SDS011;20159;51.072;13.526;2023-01-26T15:04:05;23.08;;;17.95;;
33864;SDS011;20159;51.072;13.526;2023-01-26T15:06:40;24.05;;;18.25;;
33864;SDS011;20159;51.072;13.526;2023-01-26T15:11:50;26.42;;;19.50;;
33864;SDS011;20159;51.072;13.526;2023-01-26T15:14:37;24.63;;;18.92;;
33864;SDS011;20159;51.072;13.526;2023-01-26T15:17:28;23.58;;;18.38;;
33864;SDS011;20159;51.072;13.526;2023-01-26T15:19:57;22.33;;;18.13;;
33864;SDS011;20159;51.072;13.526;2023-01-26T15:22:23;25.35;;;19.77;;
33864;SDS011;20159;51.072;13.526;2023-01-26T15:25:00;25.85;;;20.55;;
33864;SDS011;20159;51.072;13.526;2023-01-26T15:27:29;25.25;;;19.50;;
33864;SDS011;20159;51.072;13.526;2023-01-26T15:29:56;24.80;;;20.10;;